Time;durP1;ratioP1;P1;durP2;ratioP2;P2;SDS_P1;SDS_P2;PMS_P1;PMS_P2;Temp;Humidity;BMP_temperature;BMP_pressure;BME280_temperature;BME280_humidity;BME280_pressure;Samples;Min_cycle;Max_cycle;Signal;HPM_P1;HPM_P2
2022/06/12 00:02:26;;;;;;;3.70;1.90;;;;;;;22.47;56.42;101244.19;4788773;29;20047;-62
2022/06/12 00:04:54;;;;;;;2.25;1.90;;;;;;;22.26;57.37;101243.13;4788672;29;20427;-61
2022/06/12 00:07:22;;;;;;;2.03;1.65;;;;;;;22.30;57.02;101240.47;4788907;29;20058;-61
2022/06/12 00:09:50;;;;;;;3.60;2.10;;;;;;;22.14;57.98;101240.31;4788534;29;20054;-62
2022/06/12 00:12:18;;;;;;;1.77;1.67;;;;;;;22.07;58.02;101246.44;4787875;29;20062;-61
2022/06/12 00:14:46;;;;;;;3.33;1.90;;;;;;;21.89;59.22;101245.75;4787790;29;20055;-62
2022/06/12 00:17:14;;;;;;;2.75;2.17;;;;;;;21.83;59.39;101259.09;4788055;29;20503;-61
2022/06/12 00:19:44;;;;;;;2.60;2.10;;;;;;;21.92;58.82;101247.88;4787768;29;20070;-61
2022/06/12 00:22:12;;;;;;;2.80;2.08;;;;;;;21.96;58.66;101256.38;4788198;29;20515;-61
2022/06/12 00:24:40;;;;;;;2.50;2.08;;;;;;;21.94;58.93;101250.34;4787994;29;20052;-61
2022/06/12 00:27:08;;;;;;;2.28;1.90;;;;;;;22.04;58.72;101243.53;4788770;29;20058;-61
2022/06/12 00:29:38;;;;;;;2.13;1.92;;;;;;;22.13;57.96;101245.06;4788057;29;20051;-61
2022/06/12 00:32:12;;;;;;;3.10;2.00;;;;;;;22.00;58.57;101246.97;4781920;29;20047;-61
2022/06/12 00:34:48;;;;;;;2.53;1.92;;;;;;;21.95;58.89;101252.75;4788366;29;20047;-61
2022/06/12 00:37:18;;;;;;;1.75;1.65;;;;;;;21.93;58.84;101252.28;4782817;29;20043;-61
2022/06/12 00:39:48;;;;;;;2.92;1.73;;;;;;;21.91;58.91;101254.63;4787870;29;20055;-61
2022/06/12 00:42:27;;;;;;;5.68;2.00;;;;;;;21.95;58.55;101251.97;4788385;29;20070;-62
2022/06/12 00:44:58;;;;;;;2.00;1.83;;;;;;;21.92;59.05;101258.19;4788363;29;20381;-61
2022/06/12 00:47:27;;;;;;;2.80;1.90;;;;;;;21.71;60.15;101254.28;4788628;29;20039;-61
2022/06/12 00:50:05;;;;;;;3.22;2.20;;;;;;;21.59;60.71;101255.00;4787750;29;20051;-61
2022/06/12 00:52:41;;;;;;;2.25;1.67;;;;;;;21.49;61.51;101255.41;4788295;29;20043;-61
2022/06/12 00:55:24;;;;;;;2.85;1.88;;;;;;;21.57;61.16;101254.53;4787915;29;20404;-61
2022/06/12 00:58:02;;;;;;;2.17;1.98;;;;;;;21.55;61.29;101253.25;4787680;29;20403;-61
2022/06/12 01:00:31;;;;;;;1.77;1.67;;;;;;;21.41;61.62;101250.72;4786435;29;20091;-61
2022/06/12 01:03:00;;;;;;;2.83;2.08;;;;;;;21.50;60.94;101245.88;4787228;29;20055;-61
2022/06/12 01:08:17;;;;;;;4.28;1.85;;;;;;;21.42;61.26;101247.59;4786989;29;20423;-61
2022/06/12 01:10:49;;;;;;;2.20;2.00;;;;;;;21.53;60.83;101245.22;4787812;29;20415;-62
2022/06/12 01:13:25;;;;;;;2.28;2.08;;;;;;;21.57;60.90;101240.63;4786823;29;20055;-61
2022/06/12 01:15:57;;;;;;;3.20;1.83;;;;;;;21.55;61.18;101250.47;4787335;29;20499;-61
2022/06/12 01:18:30;;;;;;;2.13;1.90;;;;;;;21.44;61.38;101247.25;4787663;29;20067;-61
2022/06/12 01:21:21;;;;;;;3.20;2.33;;;;;;;21.25;62.30;101245.72;4788153;29;20416;-62
2022/06/12 01:23:53;;;;;;;2.10;1.95;;;;;;;21.31;62.25;101243.59;4786066;29;20496;-59
2022/06/12 01:26:33;;;;;;;2.60;2.40;;;;;;;21.38;61.77;101240.25;4787414;29;20062;-60
2022/06/12 01:29:12;;;;;;;2.13;1.80;;;;;;;21.50;61.25;101253.44;4787171;29;20071;-60
2022/06/12 01:32:00;;;;;;;3.78;1.77;;;;;;;21.51;61.00;101250.28;4786587;29;20051;-60
2022/06/12 01:34:42;;;;;;;4.78;1.95;;;;;;;21.41;62.06;101236.81;4787442;29;20062;-60
2022/06/12 01:37:19;;;;;;;2.53;2.10;;;;;;;21.32;62.51;101246.00;4783647;29;20110;-60
2022/06/12 01:40:24;;;;;;;2.58;2.10;;;;;;;21.21;62.92;101240.03;4784119;29;20419;-60
2022/06/12 01:43:09;;;;;;;1.80;1.70;;;;;;;21.14;63.16;101239.75;4780028;29;20070;-60
2022/06/12 01:45:47;;;;;;;3.03;2.22;;;;;;;21.13;63.01;101240.09;4787298;29;20058;-60
2022/06/12 01:48:20;;;;;;;2.67;2.00;;;;;;;21.21;62.45;101231.69;4787044;29;20051;-60
2022/06/12 01:51:05;;;;;;;3.17;2.33;;;;;;;21.17;63.06;101232.69;4787224;29;20054;-60
2022/06/12 01:54:01;;;;;;;2.92;2.22;;;;;;;21.16;63.29;101233.84;4786938;29;20055;-60
2022/06/12 01:56:54;;;;;;;2.05;1.95;;;;;;;21.07;63.55;101239.47;4786783;29;20063;-60
2022/06/12 01:59:50;;;;;;;3.00;2.30;;;;;;;20.95;64.03;101242.97;4783117;29;20062;-59
2022/06/12 02:02:29;;;;;;;2.78;2.30;;;;;;;21.06;63.43;101238.66;4786353;29;20062;-60
2022/06/12 02:05:11;;;;;;;3.45;1.95;;;;;;;21.05;63.20;101242.59;4787166;29;20047;-60
2022/06/12 02:08:03;;;;;;;3.08;2.10;;;;;;;20.88;64.36;101239.88;4785403;29;20411;-60
2022/06/12 02:10:39;;;;;;;2.47;2.25;;;;;;;20.74;65.20;101242.88;4780439;29;20392;-59
2022/06/12 02:13:12;;;;;;;2.50;2.08;;;;;;;20.73;64.81;101236.47;4786925;29;20062;-60
2022/06/12 02:15:48;;;;;;;2.33;2.10;;;;;;;20.66;65.40;101241.75;4786496;29;20131;-60
2022/06/12 02:18:23;;;;;;;;;;;;;;;20.56;65.96;101242.94;4786747;29;20056;-60
2022/06/12 02:21:01;;;;;;;2.40;2.20;;;;;;;20.44;66.46;101240.84;4786569;29;19925;-60
2022/06/12 02:23:43;;;;;;;2.10;1.90;;;;;;;20.36;66.90;101248.06;4787401;29;20051;-60
2022/06/12 02:26:14;;;;;;;3.15;2.25;;;;;;;20.62;65.05;101233.25;4786879;29;20062;-60
2022/06/12 02:28:56;;;;;;;2.40;2.20;;;;;;;20.96;64.06;101236.25;4786450;29;20052;-60
2022/06/12 02:31:34;;;;;;;2.45;2.15;;;;;;;21.11;63.67;101232.06;4785975;29;20055;-60
2022/06/12 02:34:12;;;;;;;2.13;1.88;;;;;;;21.10;63.60;101232.41;4786634;29;20060;-60
2022/06/12 02:36:46;;;;;;;3.13;1.83;;;;;;;21.07;63.38;101234.69;4786501;29;20058;-60
2022/06/12 02:39:16;;;;;;;2.83;2.05;;;;;;;21.04;63.86;101235.41;4780297;29;20082;-59
2022/06/12 02:41:50;;;;;;;3.72;2.15;;;;;;;20.77;64.28;101236.66;4786034;29;20052;-60
2022/06/12 02:44:24;;;;;;;4.53;2.50;;;;;;;20.55;65.82;101232.97;4786780;29;20055;-60
2022/06/12 02:47:12;;;;;;;;;;;;;;;20.54;66.06;101237.69;4786760;29;20484;-60
2022/06/12 02:49:43;;;;;;;2.17;1.70;;;;;;;20.50;66.57;101241.47;4786523;29;20317;-60
2022/06/12 02:52:31;;;;;;;2.53;2.00;;;;;;;20.44;66.85;101242.81;4786010;29;20131;-60
2022/06/12 02:55:06;;;;;;;2.92;2.13;;;;;;;20.35;67.37;101237.28;4785512;29;20392;-60
2022/06/12 02:57:46;;;;;;;3.00;2.10;;;;;;;20.34;67.47;101242.00;4786216;29;20056;-60
2022/06/12 03:00:14;;;;;;;4.63;2.42;;;;;;;20.32;67.55;101238.75;4786020;29;20062;-60
2022/06/12 03:03:20;;;;;;;2.42;2.20;;;;;;;20.26;67.69;101245.63;4785897;29;20056;-60
2022/06/12 03:05:51;;;;;;;2.85;2.38;;;;;;;20.25;67.73;101249.56;4786024;29;20066;-60
2022/06/12 03:08:24;;;;;;;3.20;2.13;;;;;;;20.45;66.63;101250.00;4780120;29;20051;-60
2022/06/12 03:10:53;;;;;;;2.58;2.13;;;;;;;20.30;67.51;101248.56;4789837;29;20070;-60
2022/06/12 03:13:25;;;;;;;2.63;2.20;;;;;;;20.18;68.57;101252.03;4790163;29;20439;-60
2022/06/12 03:16:08;;;;;;;4.22;1.98;;;;;;;20.24;67.54;101247.94;4789967;29;20504;-59
2022/06/12 03:18:41;;;;;;;2.73;2.40;;;;;;;20.21;67.52;101254.13;4789638;29;20062;-60
2022/06/12 03:21:29;;;;;;;2.95;2.65;;;;;;;20.26;67.09;101246.47;4789485;29;20055;-60
2022/06/12 03:24:34;;;;;;;2.65;2.33;;;;;;;20.09;68.33;101255.63;4789229;29;20511;-60
2022/06/12 03:27:05;;;;;;;2.40;2.15;;;;;;;20.19;67.73;101262.00;4789622;29;20062;-60
2022/06/12 03:29:48;;;;;;;2.70;2.38;;;;;;;20.37;67.83;101258.03;4789430;29;20052;-60
2022/06/12 03:32:42;;;;;;;2.92;2.28;;;;;;;20.29;67.57;101261.66;4789583;29;20067;-60
2022/06/12 03:35:18;;;;;;;2.60;2.15;;;;;;;20.18;68.18;101258.38;4789707;29;20066;-60
2022/06/12 03:38:24;;;;;;;2.67;2.40;;;;;;;20.31;67.55;101264.91;4789601;29;20055;-60
2022/06/12 03:41:06;;;;;;;3.75;2.28;;;;;;;20.36;67.33;101256.41;4782763;29;20054;-60
2022/06/12 03:43:51;;;;;;;2.53;2.33;;;;;;;20.18;67.93;101263.16;4789153;29;20066;-60
2022/06/12 03:46:25;;;;;;;2.50;2.30;;;;;;;20.18;68.18;101268.69;4789104;29;20543;-60
2022/06/12 03:49:26;;;;;;;3.55;1.90;;;;;;;20.11;68.69;101272.78;4783687;29;20058;-60
2022/06/12 03:52:12;;;;;;;2.90;1.80;;;;;;;20.09;68.14;101275.06;4784840;29;20052;-60
2022/06/12 03:55:15;;;;;;;4.07;1.92;;;;;;;20.20;67.88;101277.50;4782701;29;20055;-60
2022/06/12 03:57:56;;;;;;;2.00;1.77;;;;;;;20.24;67.60;101275.72;4787342;29;20516;-60
2022/06/12 04:00:30;;;;;;;4.18;2.22;;;;;;;20.25;67.63;101283.69;4788871;29;20055;-60
2022/06/12 04:03:27;;;;;;;1.90;1.60;;;;;;;20.34;67.08;101280.91;4790238;29;20067;-60
2022/06/12 04:05:59;;;;;;;2.38;2.17;;;;;;;20.47;66.56;101292.19;4781461;29;20051;-60
2022/06/12 04:08:44;;;;;;;2.42;1.80;;;;;;;20.50;66.44;101291.50;4787029;29;20135;-60
2022/06/12 04:11:14;;;;;;;3.67;2.60;;;;;;;20.45;66.71;101298.06;4785287;29;20054;-60
2022/06/12 04:13:43;;;;;;;2.10;1.90;;;;;;;20.58;66.18;101293.44;4788176;29;20066;-60
2022/06/12 04:16:12;;;;;;;2.80;2.10;;;;;;;20.76;65.46;101291.44;4788132;29;20055;-60
2022/06/12 04:18:40;;;;;;;2.92;1.98;;;;;;;20.80;65.79;101286.03;4788663;29;20056;-60
2022/06/12 04:21:24;;;;;;;2.38;2.17;;;;;;;20.95;64.56;101298.59;4788176;29;20518;-60
2022/06/12 04:23:54;;;;;;;3.95;2.53;;;;;;;20.86;65.64;101298.63;4788769;29;20055;-60
2022/06/12 04:26:29;;;;;;;3.78;1.90;;;;;;;20.80;65.81;101286.84;4786956;29;20066;-60
2022/06/12 04:29:19;;;;;;;2.97;2.17;;;;;;;20.93;65.36;101292.56;4789233;29;20051;-60
2022/06/12 04:31:50;;;;;;;4.20;2.03;;;;;;;21.13;64.53;101296.56;4779469;29;20415;-60
2022/06/12 04:34:25;;;;;;;2.05;1.77;;;;;;;21.08;64.81;101293.97;4788431;29;20055;-60
2022/06/12 04:36:58;;;;;;;2.85;2.65;;;;;;;21.00;65.49;101301.19;4788239;29;20047;-60
2022/06/12 04:39:33;;;;;;;3.58;2.08;;;;;;;21.12;64.93;101296.88;4788455;29;20051;-60
2022/06/12 04:42:02;;;;;;;2.83;2.00;;;;;;;21.28;64.24;101294.34;4787889;29;20063;-60
2022/06/12 04:44:30;;;;;;;2.38;2.13;;;;;;;21.45;64.11;101305.38;4788361;29;20048;-60
2022/06/12 04:47:00;;;;;;;2.20;2.00;;;;;;;21.59;64.60;101296.78;4788404;29;20796;-60
2022/06/12 04:49:31;;;;;;;3.50;2.10;;;;;;;21.80;62.71;101292.41;4788251;29;20059;-60
2022/06/12 04:52:01;;;;;;;3.60;2.13;;;;;;;21.76;63.19;101292.28;4788187;29;20059;-60
2022/06/12 04:54:31;;;;;;;2.92;2.03;;;;;;;21.71;62.63;101290.47;4788065;29;20047;-60
2022/06/12 04:57:00;;;;;;;2.35;2.15;;;;;;;21.80;63.04;101292.41;4787778;29;20051;-60
2022/06/12 04:59:29;;;;;;;2.42;2.05;;;;;;;21.86;63.21;101296.63;4787951;29;20059;-60
2022/06/12 05:01:57;;;;;;;2.60;2.40;;;;;;;21.88;62.45;101295.13;4787355;29;20047;-60
2022/06/12 05:04:26;;;;;;;2.90;2.33;;;;;;;22.04;62.83;101296.47;4787337;29;20051;-60
2022/06/12 05:06:55;;;;;;;3.65;2.47;;;;;;;22.16;63.04;101290.94;4787544;29;20036;-60
2022/06/12 05:09:27;;;;;;;2.70;2.00;;;;;;;22.13;62.35;101300.81;4787490;29;20055;-61
2022/06/12 05:11:56;;;;;;;4.78;2.20;;;;;;;22.21;61.94;101301.88;4787754;29;20067;-61
2022/06/12 05:14:24;;;;;;;2.55;2.35;;;;;;;22.37;60.30;101298.44;4785821;29;20207;-60
2022/06/12 05:16:51;;;;;;;2.95;2.63;;;;;;;22.39;59.79;101288.56;4787162;29;20518;-60
2022/06/12 05:19:23;;;;;;;2.72;2.50;;;;;;;22.61;59.44;101296.91;4787733;29;20051;-60
2022/06/12 05:21:52;;;;;;;5.97;2.35;;;;;;;23.05;58.28;101299.16;4787087;29;20062;-66
2022/06/12 05:24:20;;;;;;;3.13;2.10;;;;;;;23.29;56.83;101294.75;4800807;29;20039;-67
2022/06/12 05:26:51;;;;;;;1.90;1.80;;;;;;;23.40;56.98;101303.50;4787396;29;20050;-66
2022/06/12 05:29:30;;;;;;;2.03;1.60;;;;;;;23.51;56.46;101307.41;4786759;29;20519;-66
2022/06/12 05:31:59;;;;;;;3.92;1.70;;;;;;;23.67;55.43;101312.28;4785182;29;20059;-66
2022/06/12 05:34:28;;;;;;;3.30;1.63;;;;;;;23.61;55.22;101308.94;4787058;29;20500;-66
2022/06/12 05:36:57;;;;;;;2.28;2.08;;;;;;;23.73;54.82;101310.88;4787562;29;20062;-66
2022/06/12 05:39:25;;;;;;;7.13;2.83;;;;;;;23.88;54.30;101312.13;4786200;29;20403;-66
2022/06/12 05:41:53;;;;;;;3.10;2.83;;;;;;;24.00;54.55;101305.69;4786980;29;20074;-67
2022/06/12 05:44:21;;;;;;;4.55;3.40;;;;;;;24.14;53.75;101303.31;4787468;29;20546;-67
2022/06/12 05:46:57;;;;;;;5.00;3.47;;;;;;;24.14;53.84;101308.09;4787119;29;20388;-67
2022/06/12 05:49:27;;;;;;;7.43;3.50;;;;;;;24.23;53.50;101311.56;4787262;29;20527;-66
2022/06/12 05:51:55;;;;;;;4.30;2.97;;;;;;;24.31;53.58;101311.75;4787528;29;20062;-66
2022/06/12 05:54:22;;;;;;;3.13;2.75;;;;;;;24.40;53.26;101307.63;4786647;29;20081;-66
2022/06/12 05:56:51;;;;;;;4.00;2.63;;;;;;;24.53;52.65;101315.94;4786655;29;20051;-66
2022/06/12 05:59:19;;;;;;;2.80;2.45;;;;;;;24.64;52.34;101305.84;4786728;29;20063;-67
2022/06/12 06:01:47;;;;;;;3.20;2.80;;;;;;;24.78;51.79;101310.22;4786518;29;20054;-66
2022/06/12 06:04:16;;;;;;;2.35;2.15;;;;;;;24.89;51.29;101311.31;4786860;29;20059;-66
2022/06/12 06:06:57;;;;;;;2.97;2.50;;;;;;;24.92;51.05;101307.78;4785719;29;20051;-66
2022/06/12 06:09:27;;;;;;;2.63;2.20;;;;;;;25.05;51.02;101311.31;4786724;29;20055;-66
2022/06/12 06:11:57;;;;;;;3.15;2.50;;;;;;;25.14;50.36;101311.13;4786792;29;20468;-66
2022/06/12 06:14:25;;;;;;;2.40;2.20;;;;;;;25.30;50.29;101304.69;4784313;29;20059;-67
2022/06/12 06:16:53;;;;;;;3.88;2.40;;;;;;;25.29;49.37;101311.47;4781356;29;20054;-66
2022/06/12 06:19:21;;;;;;;7.10;1.88;;;;;;;25.38;48.65;101314.88;4784911;29;20062;-66
2022/06/12 06:21:49;;;;;;;5.93;2.78;;;;;;;25.46;49.22;101318.66;4786722;29;20066;-67
2022/06/12 06:24:18;;;;;;;5.65;2.72;;;;;;;25.53;48.42;101332.00;4783529;29;20051;-67
2022/06/12 06:26:47;;;;;;;5.53;2.70;;;;;;;25.62;49.34;101313.84;4784646;29;20047;-67
2022/06/12 06:29:15;;;;;;;5.43;2.72;;;;;;;25.73;48.73;101322.50;4785416;29;20055;-66
2022/06/12 06:31:43;;;;;;;3.78;2.60;;;;;;;25.81;48.26;101328.25;4786551;29;20059;-67
2022/06/12 06:34:11;;;;;;;2.67;2.25;;;;;;;25.85;47.23;101329.16;4786037;29;20403;-66
2022/06/12 06:36:39;;;;;;;3.08;2.33;;;;;;;25.90;46.16;101337.25;4784651;29;20047;-66
2022/06/12 06:39:09;;;;;;;3.30;2.58;;;;;;;26.05;45.79;101338.38;4785882;29;20062;-66
2022/06/12 06:41:37;;;;;;;3.17;2.05;;;;;;;26.18;45.60;101325.03;4785517;29;20055;-66
2022/06/12 06:46:51;;;;;;;2.08;1.98;;;;;;;26.25;44.16;101333.59;4790770;29;20510;-66
2022/06/12 06:49:21;;;;;;;3.28;1.50;;;;;;;26.30;43.73;101321.28;4791118;29;20051;-66
2022/06/12 06:51:50;;;;;;;1.75;1.63;;;;;;;26.40;44.51;101342.31;4790102;29;20058;-66
2022/06/12 06:54:21;;;;;;;2.85;1.52;;;;;;;26.54;44.24;101336.16;4790811;29;20069;-66
2022/06/12 06:56:50;;;;;;;3.05;1.88;;;;;;;26.51;43.23;101331.28;4782881;29;20062;-66
2022/06/12 06:59:18;;;;;;;1.73;1.52;;;;;;;26.53;43.69;101335.34;4790874;29;20048;-66
2022/06/12 07:01:46;;;;;;;2.05;1.70;;;;;;;26.52;42.59;101336.53;4791084;29;20511;-66
2022/06/12 07:04:15;;;;;;;1.70;1.60;;;;;;;26.69;43.13;101334.44;4792492;29;20519;-66
2022/06/12 07:06:43;;;;;;;2.97;1.77;;;;;;;26.81;42.86;101328.63;4792573;29;20055;-66
2022/06/12 07:09:10;;;;;;;1.77;1.67;;;;;;;26.88;42.64;101327.91;4792395;29;20051;-66
2022/06/12 07:11:39;;;;;;;1.70;1.40;;;;;;;26.86;42.45;101330.31;4792393;29;20064;-66
2022/06/12 07:14:07;;;;;;;1.40;1.30;;;;;;;26.93;42.63;101329.66;4792637;29;20055;-66
2022/06/12 07:16:36;;;;;;;2.30;1.65;;;;;;;27.02;42.51;101338.63;4792400;29;20404;-66
2022/06/12 07:19:05;;;;;;;1.90;1.80;;;;;;;27.03;42.11;101336.63;4791744;29;20419;-66
2022/06/12 07:21:33;;;;;;;1.70;1.60;;;;;;;27.06;42.13;101333.06;4792203;29;20055;-66
2022/06/12 07:24:01;;;;;;;1.92;1.83;;;;;;;27.13;42.00;101332.38;4792262;29;20066;-66
2022/06/12 07:26:38;;;;;;;2.63;1.50;;;;;;;27.15;42.48;101341.22;4792035;29;20055;-66
2022/06/12 07:29:06;;;;;;;1.52;1.42;;;;;;;27.24;42.53;101338.97;4792041;29;20139;-66
2022/06/12 07:31:35;;;;;;;1.33;1.30;;;;;;;27.32;42.28;101337.88;4787185;29;20447;-66
2022/06/12 07:34:03;;;;;;;1.58;1.48;;;;;;;27.43;42.28;101346.50;4787495;29;20047;-67
2022/06/12 07:36:35;;;;;;;1.42;1.33;;;;;;;27.45;42.14;101332.88;4786665;29;20055;-66
2022/06/12 07:39:06;;;;;;;1.70;1.60;;;;;;;27.56;41.86;101333.03;4787921;29;20079;-66
2022/06/12 07:41:45;;;;;;;2.60;1.63;;;;;;;27.60;42.20;101338.72;4789273;29;20039;-67
2022/06/12 07:44:14;;;;;;;1.90;1.80;;;;;;;27.66;41.32;101336.41;4789447;29;20043;-66
2022/06/12 07:46:43;;;;;;;2.72;1.90;;;;;;;27.71;41.99;101336.06;4790415;29;20052;-66
2022/06/12 07:49:11;;;;;;;2.00;1.90;;;;;;;27.69;41.61;101333.63;4784226;29;20503;-67
2022/06/12 07:51:39;;;;;;;1.67;1.45;;;;;;;27.79;41.71;101334.97;4789886;29;20047;-66
2022/06/12 07:54:07;;;;;;;2.72;1.75;;;;;;;27.83;42.44;101333.03;4800784;29;20055;-66
2022/06/12 07:56:36;;;;;;;2.05;1.67;;;;;;;27.96;41.55;101338.41;4787271;29;20039;-66
2022/06/12 07:59:07;;;;;;;1.98;1.60;;;;;;;28.09;41.36;101336.97;4786502;29;20059;-66
2022/06/12 08:01:36;;;;;;;2.05;1.85;;;;;;;28.10;40.78;101337.78;4787269;29;20071;-66
2022/06/12 08:04:06;;;;;;;2.17;1.70;;;;;;;27.99;41.35;101332.00;4785283;29;20062;-66
2022/06/12 08:06:34;;;;;;;1.67;1.45;;;;;;;28.03;40.78;101324.44;4786742;29;20051;-67
2022/06/12 08:09:05;;;;;;;2.15;1.55;;;;;;;28.15;40.86;101321.34;4787609;29;20044;-67
2022/06/12 08:11:35;;;;;;;2.30;2.10;;;;;;;28.17;40.44;101310.53;4787210;29;20064;-67
2022/06/12 08:14:03;;;;;;;2.05;1.40;;;;;;;28.19;40.29;101312.94;4800818;29;20047;-64
2022/06/12 08:16:38;;;;;;;2.15;1.83;;;;;;;28.39;40.00;101315.63;4787026;29;20043;-65
2022/06/12 08:20:24;;;;;;;1.75;1.65;;;;;;;28.42;40.06;101321.28;4786447;29;20067;-66
2022/06/12 08:21:57;;;;;;;2.17;1.80;;;;;;;28.36;39.98;101324.81;4785490;29;20051;-66
2022/06/12 08:24:28;;;;;;;1.90;1.77;;;;;;;28.42;39.93;101314.84;4786829;29;20055;-66
2022/06/12 08:26:57;;;;;;;1.73;1.63;;;;;;;28.41;38.73;101314.03;4788175;29;20480;-66
2022/06/12 08:29:26;;;;;;;2.38;1.77;;;;;;;28.48;39.06;101301.25;4788134;29;20043;-66
2022/06/12 08:32:01;;;;;;;2.00;1.83;;;;;;;28.66;40.09;101312.66;4786022;29;20043;-66
2022/06/12 08:34:36;;;;;;;2.30;1.90;;;;;;;28.77;39.54;101313.56;4787767;29;20048;-66
2022/06/12 08:37:12;;;;;;;3.78;1.70;;;;;;;28.95;39.41;101307.31;4785667;29;20047;-66
2022/06/12 08:39:41;;;;;;;2.30;2.10;;;;;;;29.01;38.96;101310.56;4785541;29;20532;-66
2022/06/12 08:42:18;;;;;;;2.40;2.20;;;;;;;29.01;38.60;101310.56;4784569;29;20055;-66
2022/06/12 08:45:00;;;;;;;1.85;1.73;;;;;;;29.04;39.36;101309.78;4784971;29;20050;-66
2022/06/12 08:47:43;;;;;;;2.60;2.05;;;;;;;29.13;38.87;101309.44;4799727;29;20051;-66
2022/06/12 08:50:30;;;;;;;2.35;2.15;;;;;;;29.14;39.07;101314.69;4785228;29;20051;-66
2022/06/12 08:53:27;;;;;;;3.40;2.00;;;;;;;29.13;39.21;101315.91;4785123;29;20051;-66
2022/06/12 08:56:06;;;;;;;1.98;1.88;;;;;;;29.14;38.97;101300.63;4781749;29;20522;-66
2022/06/12 08:58:47;;;;;;;1.88;1.77;;;;;;;29.22;38.57;101304.25;4790676;29;20047;-66
2022/06/12 09:01:16;;;;;;;3.38;1.88;;;;;;;29.16;37.60;101295.38;4787116;29;20055;-66
2022/06/12 09:03:49;;;;;;;2.50;1.60;;;;;;;29.16;37.41;101298.19;4786677;29;20066;-65
2022/06/12 09:06:39;;;;;;;3.13;1.77;;;;;;;29.16;37.88;101289.75;4787952;29;20488;-66
2022/06/12 09:09:14;;;;;;;1.80;1.70;;;;;;;29.22;38.03;101293.81;4787743;29;20495;-66
2022/06/12 09:11:47;;;;;;;1.63;1.52;;;;;;;29.16;38.01;101284.09;4788216;29;20070;-66
2022/06/12 09:14:52;;;;;;;2.60;1.70;;;;;;;29.32;37.48;101294.28;4787350;29;20080;-66
2022/06/12 09:17:28;;;;;;;1.63;1.52;;;;;;;29.32;37.96;101291.47;4786965;29;20047;-66
2022/06/12 09:20:20;;;;;;;1.30;1.20;;;;;;;29.49;37.37;101285.16;4786050;29;20055;-66
2022/06/12 09:23:20;;;;;;;1.75;1.58;;;;;;;29.49;37.08;101282.34;4783974;29;20408;-66
2022/06/12 09:25:53;;;;;;;1.65;1.55;;;;;;;29.54;36.76;101283.97;4774503;29;20078;-66
2022/06/12 09:28:30;;;;;;;2.03;1.83;;;;;;;29.55;36.32;101288.41;4793619;29;20056;-66
2022/06/12 09:31:28;;;;;;;2.88;1.55;;;;;;;29.60;36.87;101282.38;4785184;29;20404;-66
2022/06/12 09:34:02;;;;;;;1.90;1.33;;;;;;;29.57;37.00;101276.72;4782609;29;20055;-66
2022/06/12 09:36:55;;;;;;;3.92;1.85;;;;;;;29.71;36.46;101273.97;4784645;29;20051;-66
2022/06/12 09:40:00;;;;;;;3.17;2.22;;;;;;;29.56;37.36;101270.25;4786311;29;20300;-66
2022/06/12 09:42:47;;;;;;;1.73;1.63;;;;;;;29.73;36.26;101265.09;4784242;29;20063;-65
2022/06/12 09:45:26;;;;;;;1.70;1.60;;;;;;;29.82;35.94;101271.19;4783443;29;20051;-65
2022/06/12 09:48:13;;;;;;;1.25;1.25;;;;;;;29.93;35.90;101268.41;4781038;29;20499;-65
2022/06/12 09:51:01;;;;;;;3.10;1.60;;;;;;;30.09;35.75;101259.59;4785395;29;20055;-65
2022/06/12 09:54:07;;;;;;;4.68;1.67;;;;;;;30.06;35.92;101265.22;4783368;29;20059;-66
2022/06/12 09:56:48;;;;;;;3.47;1.73;;;;;;;30.15;35.82;101262.84;4781732;29;20051;-65
2022/06/12 09:59:25;;;;;;;2.70;1.25;;;;;;;30.14;35.63;101256.41;4783939;29;20059;-66
2022/06/12 10:01:58;;;;;;;1.55;1.45;;;;;;;30.33;35.24;101262.06;4781297;29;20052;-60
2022/06/12 10:04:44;;;;;;;1.63;1.52;;;;;;;30.43;34.02;101258.44;4786421;29;20067;-60
2022/06/12 10:07:39;;;;;;;1.60;1.50;;;;;;;31.12;33.29;101255.59;4784843;29;20060;-60
2022/06/12 10:10:16;;;;;;;1.83;1.58;;;;;;;31.44;33.79;101245.44;4785259;29;20062;-60
2022/06/12 10:12:48;;;;;;;1.70;1.48;;;;;;;32.01;32.16;101250.06;4786833;29;20407;-60
2022/06/12 10:15:32;;;;;;;1.50;1.33;;;;;;;32.11;31.10;101247.59;4786324;29;20078;-60
2022/06/12 10:18:06;;;;;;;2.00;1.65;;;;;;;32.35;31.31;101242.94;4786903;29;20392;-60
2022/06/12 10:20:42;;;;;;;1.60;1.50;;;;;;;32.76;31.39;101238.59;4786248;29;20062;-60
2022/06/12 10:23:10;;;;;;;2.45;1.60;;;;;;;32.39;31.63;101238.06;4786779;29;20063;-60
2022/06/12 10:25:52;;;;;;;1.50;1.40;;;;;;;32.17;31.83;101238.22;4786593;29;20126;-60
2022/06/12 10:28:36;;;;;;;2.90;1.85;;;;;;;32.55;31.65;101236.78;4786199;29;20688;-60
2022/06/12 10:31:20;;;;;;;1.50;1.40;;;;;;;32.65;31.98;101227.34;4786323;29;20059;-60
2022/06/12 10:33:50;;;;;;;1.83;1.73;;;;;;;32.86;32.06;101225.53;4786386;29;20769;-60
2022/06/12 10:36:21;;;;;;;1.63;1.52;;;;;;;32.98;31.89;101218.56;4786595;29;20059;-60
2022/06/12 10:38:49;;;;;;;1.92;1.83;;;;;;;33.04;31.50;101216.09;4786478;29;20120;-60
2022/06/12 10:41:24;;;;;;;1.30;1.20;;;;;;;33.47;30.61;101206.25;4786860;29;20063;-60
2022/06/12 10:43:58;;;;;;;2.45;1.70;;;;;;;33.54;29.91;101197.69;4800267;29;20040;-60
2022/06/12 10:46:31;;;;;;;1.33;1.23;;;;;;;33.71;30.72;101207.16;4786031;29;20468;-60
2022/06/12 10:49:21;;;;;;;2.70;1.58;;;;;;;34.02;28.79;101200.66;4775124;29;20055;-60
2022/06/12 10:51:51;;;;;;;2.83;1.50;;;;;;;33.83;29.35;101196.47;4786216;29;20062;-60
2022/06/12 10:54:22;;;;;;;1.50;1.40;;;;;;;34.21;29.73;101196.31;4786295;29;20051;-60
2022/06/12 10:57:23;;;;;;;3.20;1.60;;;;;;;34.26;28.91;101190.13;4786500;29;20055;-60
2022/06/12 10:59:53;;;;;;;1.52;1.42;;;;;;;34.69;27.74;101182.09;4770568;29;20051;-60
2022/06/12 11:02:36;;;;;;;2.00;1.73;;;;;;;34.73;27.07;101180.00;4786119;29;20058;-61
2022/06/12 11:05:12;;;;;;;1.80;1.67;;;;;;;34.38;28.34;101182.22;4786721;29;20059;-60
2022/06/12 11:07:49;;;;;;;1.50;1.25;;;;;;;34.11;28.72;101181.03;4785048;29;20412;-60
2022/06/12 11:10:38;;;;;;;1.60;1.50;;;;;;;34.45;28.18;101180.06;4786142;29;20514;-60
2022/06/12 11:13:42;;;;;;;1.65;1.55;;;;;;;33.99;28.62;101167.44;4785742;29;20051;-60
2022/06/12 11:16:31;;;;;;;2.50;1.35;;;;;;;34.06;30.12;101167.34;4786103;29;20063;-60
2022/06/12 11:19:05;;;;;;;1.60;1.50;;;;;;;34.16;29.50;101166.38;4785840;29;20059;-60
2022/06/12 11:21:51;;;;;;;1.50;1.40;;;;;;;33.80;29.59;101163.28;4785951;29;20052;-60
2022/06/12 11:24:34;;;;;;;1.63;1.52;;;;;;;33.48;30.58;101163.25;4786283;29;20051;-59
2022/06/12 11:27:27;;;;;;;1.65;1.55;;;;;;;32.90;30.49;101171.66;4786165;29;20047;-59
2022/06/12 11:29:57;;;;;;;1.75;1.65;;;;;;;32.53;32.88;101162.72;4785580;29;20420;-60
2022/06/12 11:32:47;;;;;;;1.30;1.27;;;;;;;32.56;31.04;101162.69;4788699;29;20427;-59
2022/06/12 11:35:45;;;;;;;1.70;1.60;;;;;;;33.06;31.87;101148.41;4789622;29;20068;-61
2022/06/12 11:38:28;;;;;;;2.13;2.00;;;;;;;33.72;29.76;101149.19;4788949;29;20059;-60
2022/06/12 11:41:27;;;;;;;1.80;1.70;;;;;;;34.37;28.73;101155.88;4789219;29;20051;-60
2022/06/12 11:44:01;;;;;;;1.92;1.73;;;;;;;34.32;29.04;101150.69;4775397;29;20055;-60
2022/06/12 11:46:31;;;;;;;2.20;1.77;;;;;;;34.42;27.94;101146.06;4789207;29;20582;-60
2022/06/12 11:49:14;;;;;;;1.45;1.35;;;;;;;35.04;28.05;101148.53;4789153;29;20044;-60
2022/06/12 11:52:12;;;;;;;1.45;1.35;;;;;;;34.98;28.34;101136.06;4789549;29;20051;-60
2022/06/12 11:55:06;;;;;;;1.98;1.38;;;;;;;34.56;29.67;101130.78;4789233;29;20055;-60
2022/06/12 11:57:57;;;;;;;1.38;1.27;;;;;;;34.81;28.76;101124.66;4788674;29;20056;-60
2022/06/12 12:01:02;;;;;;;1.80;1.60;;;;;;;34.53;29.53;101125.97;4788830;29;20059;-60
2022/06/12 12:03:59;;;;;;;1.48;1.38;;;;;;;34.83;29.03;101122.16;4788998;29;20419;-60
2022/06/12 12:06:53;;;;;;;2.85;1.83;;;;;;;35.21;28.21;101112.47;4789137;29;20086;-60
2022/06/12 12:10:08;;;;;;;1.90;1.60;;;;;;;35.04;28.11;101114.41;4788589;29;20059;-61
2022/06/12 12:12:42;;;;;;;1.70;1.30;;;;;;;35.34;28.29;101111.78;4785339;29;20526;-60
2022/06/12 12:15:17;;;;;;;1.73;1.63;;;;;;;35.22;27.60;101107.56;4789285;29;20059;-61
2022/06/12 12:17:48;;;;;;;2.45;1.80;;;;;;;35.17;28.30;101108.06;4802328;29;20047;-61